sensor_id;sensor_type;location;lat;lon;timestamp;P1;durP1;ratioP1;P2;durP2;ratioP2
14847;SDS011;7516;43.570;1.448;2023-11-19T00:02:20;15.13;;;11.40;;
14847;SDS011;7516;43.570;1.448;2023-11-19T00:04:47;18.50;;;11.73;;
14847;SDS011;7516;43.570;1.448;2023-11-19T00:07:15;16.07;;;11.13;;
14847;SDS011;7516;43.570;1.448;2023-11-19T00:09:42;14.70;;;10.87;;
14847;SDS011;7516;43.570;1.448;2023-11-19T00:12:11;17.37;;;11.20;;
14847;SDS011;7516;43.570;1.448;2023-11-19T00:14:39;16.50;;;11.17;;
14847;SDS011;7516;43.570;1.448;2023-11-19T00:17:06;17.57;;;11.67;;
14847;SDS011;7516;43.570;1.448;2023-11-19T00:19:34;16.93;;;11.50;;
14847;SDS011;7516;43.570;1.448;2023-11-19T00:22:01;15.87;;;11.50;;
14847;SDS011;7516;43.570;1.448;2023-11-19T00:24:29;21.20;;;12.50;;
14847;SDS011;7516;43.570;1.448;2023-11-19T00:26:57;22.87;;;15.53;;
14847;SDS011;7516;43.570;1.448;2023-11-19T00:29:25;20.50;;;16.17;;
14847;SDS011;7516;43.570;1.448;2023-11-19T00:31:53;15.63;;;13.40;;
14847;SDS011;7516;43.570;1.448;2023-11-19T00:34:21;19.37;;;13.50;;
14847;SDS011;7516;43.570;1.448;2023-11-19T00:36:49;18.03;;;13.40;;
14847;SDS011;7516;43.570;1.448;2023-11-19T00:39:17;20.60;;;13.37;;
14847;SDS011;7516;43.570;1.448;2023-11-19T00:41:46;17.50;;;12.37;;
14847;SDS011;7516;43.570;1.448;2023-11-19T00:44:13;14.30;;;12.07;;
14847;SDS011;7516;43.570;1.448;2023-11-19T00:46:42;16.03;;;12.03;;
14847;SDS011;7516;43.570;1.448;2023-11-19T00:49:09;19.97;;;12.57;;
14847;SDS011;7516;43.570;1.448;2023-11-19T00:51:37;17.33;;;11.77;;
14847;SDS011;7516;43.570;1.448;2023-11-19T00:54:04;14.80;;;11.53;;
14847;SDS011;7516;43.570;1.448;2023-11-19T00:56:32;15.93;;;11.67;;
14847;SDS011;7516;43.570;1.448;2023-11-19T00:58:59;15.17;;;11.67;;
14847;SDS011;7516;43.570;1.448;2023-11-19T01:01:27;17.03;;;11.20;;
14847;SDS011;7516;43.570;1.448;2023-11-19T01:03:56;17.03;;;12.00;;
14847;SDS011;7516;43.570;1.448;2023-11-19T01:06:27;16.10;;;12.07;;
14847;SDS011;7516;43.570;1.448;2023-11-19T01:08:54;15.03;;;11.50;;
14847;SDS011;7516;43.570;1.448;2023-11-19T01:11:23;14.60;;;12.37;;
14847;SDS011;7516;43.570;1.448;2023-11-19T01:13:52;16.67;;;11.77;;
14847;SDS011;7516;43.570;1.448;2023-11-19T01:16:19;16.07;;;11.70;;
14847;SDS011;7516;43.570;1.448;2023-11-19T01:18:47;16.93;;;11.63;;
14847;SDS011;7516;43.570;1.448;2023-11-19T01:21:16;14.80;;;11.73;;
14847;SDS011;7516;43.570;1.448;2023-11-19T01:23:43;15.50;;;11.77;;
14847;SDS011;7516;43.570;1.448;2023-11-19T01:26:14;17.50;;;12.03;;
14847;SDS011;7516;43.570;1.448;2023-11-19T01:28:41;17.13;;;12.00;;
14847;SDS011;7516;43.570;1.448;2023-11-19T01:31:10;16.00;;;11.33;;
14847;SDS011;7516;43.570;1.448;2023-11-19T01:33:38;13.47;;;8.97;;
14847;SDS011;7516;43.570;1.448;2023-11-19T01:36:06;15.00;;;10.93;;
14847;SDS011;7516;43.570;1.448;2023-11-19T01:38:36;16.47;;;10.33;;
14847;SDS011;7516;43.570;1.448;2023-11-19T01:41:03;13.90;;;9.03;;
14847;SDS011;7516;43.570;1.448;2023-11-19T01:43:34;14.13;;;9.93;;
14847;SDS011;7516;43.570;1.448;2023-11-19T01:46:04;11.53;;;8.57;;
14847;SDS011;7516;43.570;1.448;2023-11-19T01:48:34;11.90;;;8.63;;
14847;SDS011;7516;43.570;1.448;2023-11-19T01:51:05;10.33;;;7.53;;
14847;SDS011;7516;43.570;1.448;2023-11-19T01:53:36;12.83;;;7.77;;
14847;SDS011;7516;43.570;1.448;2023-11-19T01:56:07;10.87;;;7.53;;
14847;SDS011;7516;43.570;1.448;2023-11-19T01:58:35;10.60;;;7.20;;
14847;SDS011;7516;43.570;1.448;2023-11-19T02:01:04;12.20;;;7.47;;
14847;SDS011;7516;43.570;1.448;2023-11-19T02:03:32;11.53;;;7.20;;
14847;SDS011;7516;43.570;1.448;2023-11-19T02:06:00;8.70;;;6.73;;
14847;SDS011;7516;43.570;1.448;2023-11-19T02:08:29;10.50;;;6.37;;
14847;SDS011;7516;43.570;1.448;2023-11-19T02:10:58;8.53;;;6.43;;
14847;SDS011;7516;43.570;1.448;2023-11-19T02:13:27;9.33;;;6.90;;
14847;SDS011;7516;43.570;1.448;2023-11-19T02:15:54;9.60;;;6.53;;
14847;SDS011;7516;43.570;1.448;2023-11-19T02:18:23;8.67;;;6.80;;
14847;SDS011;7516;43.570;1.448;2023-11-19T02:20:53;11.73;;;6.97;;
14847;SDS011;7516;43.570;1.448;2023-11-19T02:23:21;11.37;;;7.33;;
14847;SDS011;7516;43.570;1.448;2023-11-19T02:25:53;13.53;;;7.07;;
14847;SDS011;7516;43.570;1.448;2023-11-19T02:28:30;11.73;;;7.67;;
14847;SDS011;7516;43.570;1.448;2023-11-19T02:30:58;11.00;;;7.40;;
14847;SDS011;7516;43.570;1.448;2023-11-19T02:33:25;10.43;;;7.53;;
14847;SDS011;7516;43.570;1.448;2023-11-19T02:35:53;10.73;;;8.90;;
14847;SDS011;7516;43.570;1.448;2023-11-19T02:38:20;10.37;;;7.80;;
14847;SDS011;7516;43.570;1.448;2023-11-19T02:40:48;9.03;;;8.03;;
14847;SDS011;7516;43.570;1.448;2023-11-19T02:43:15;12.27;;;7.37;;
14847;SDS011;7516;43.570;1.448;2023-11-19T02:45:44;9.43;;;6.60;;
14847;SDS011;7516;43.570;1.448;2023-11-19T02:48:11;11.57;;;7.60;;
14847;SDS011;7516;43.570;1.448;2023-11-19T02:50:41;12.90;;;7.63;;
14847;SDS011;7516;43.570;1.448;2023-11-19T02:53:08;9.10;;;6.73;;
14847;SDS011;7516;43.570;1.448;2023-11-19T02:55:38;9.50;;;6.70;;
14847;SDS011;7516;43.570;1.448;2023-11-19T02:58:06;11.07;;;6.60;;
14847;SDS011;7516;43.570;1.448;2023-11-19T03:00:46;7.77;;;6.23;;
14847;SDS011;7516;43.570;1.448;2023-11-19T03:03:19;11.87;;;6.07;;
14847;SDS011;7516;43.570;1.448;2023-11-19T03:05:47;9.77;;;6.50;;
14847;SDS011;7516;43.570;1.448;2023-11-19T03:08:15;10.57;;;6.90;;
14847;SDS011;7516;43.570;1.448;2023-11-19T03:10:43;12.53;;;7.30;;
14847;SDS011;7516;43.570;1.448;2023-11-19T03:13:11;11.87;;;7.13;;
14847;SDS011;7516;43.570;1.448;2023-11-19T03:15:40;11.37;;;6.93;;
14847;SDS011;7516;43.570;1.448;2023-11-19T03:18:09;9.43;;;7.50;;
14847;SDS011;7516;43.570;1.448;2023-11-19T03:20:36;10.33;;;7.03;;
14847;SDS011;7516;43.570;1.448;2023-11-19T03:23:04;10.87;;;7.87;;
14847;SDS011;7516;43.570;1.448;2023-11-19T03:25:32;10.73;;;7.67;;
14847;SDS011;7516;43.570;1.448;2023-11-19T03:27:59;11.50;;;8.50;;
14847;SDS011;7516;43.570;1.448;2023-11-19T03:30:28;12.00;;;8.63;;
14847;SDS011;7516;43.570;1.448;2023-11-19T03:32:55;12.40;;;9.10;;
14847;SDS011;7516;43.570;1.448;2023-11-19T03:35:24;11.57;;;8.93;;
14847;SDS011;7516;43.570;1.448;2023-11-19T03:37:53;11.57;;;8.97;;
14847;SDS011;7516;43.570;1.448;2023-11-19T03:40:21;13.23;;;9.13;;
14847;SDS011;7516;43.570;1.448;2023-11-19T03:42:50;12.43;;;9.47;;
14847;SDS011;7516;43.570;1.448;2023-11-19T03:45:17;11.80;;;8.97;;
14847;SDS011;7516;43.570;1.448;2023-11-19T03:47:45;15.53;;;9.33;;
14847;SDS011;7516;43.570;1.448;2023-11-19T03:50:15;13.10;;;9.17;;
14847;SDS011;7516;43.570;1.448;2023-11-19T03:52:46;12.87;;;9.47;;
14847;SDS011;7516;43.570;1.448;2023-11-19T03:55:14;11.57;;;8.37;;
14847;SDS011;7516;43.570;1.448;2023-11-19T03:57:41;13.77;;;9.30;;
14847;SDS011;7516;43.570;1.448;2023-11-19T04:00:09;13.60;;;9.20;;
14847;SDS011;7516;43.570;1.448;2023-11-19T04:02:39;11.40;;;8.70;;
14847;SDS011;7516;43.570;1.448;2023-11-19T04:05:07;12.27;;;9.07;;
14847;SDS011;7516;43.570;1.448;2023-11-19T04:07:35;12.20;;;8.87;;
14847;SDS011;7516;43.570;1.448;2023-11-19T04:10:04;11.77;;;9.20;;
14847;SDS011;7516;43.570;1.448;2023-11-19T04:12:32;11.97;;;8.97;;
14847;SDS011;7516;43.570;1.448;2023-11-19T04:15:01;12.90;;;9.23;;
14847;SDS011;7516;43.570;1.448;2023-11-19T04:17:29;13.50;;;9.30;;
14847;SDS011;7516;43.570;1.448;2023-11-19T04:19:57;12.27;;;9.73;;
14847;SDS011;7516;43.570;1.448;2023-11-19T04:22:24;15.30;;;10.57;;
14847;SDS011;7516;43.570;1.448;2023-11-19T04:24:52;13.23;;;10.33;;
14847;SDS011;7516;43.570;1.448;2023-11-19T04:27:21;15.57;;;10.73;;
14847;SDS011;7516;43.570;1.448;2023-11-19T04:29:48;13.93;;;10.63;;
14847;SDS011;7516;43.570;1.448;2023-11-19T04:32:16;14.37;;;10.63;;
14847;SDS011;7516;43.570;1.448;2023-11-19T04:34:44;15.20;;;10.77;;
14847;SDS011;7516;43.570;1.448;2023-11-19T04:37:11;16.30;;;10.73;;
14847;SDS011;7516;43.570;1.448;2023-11-19T04:39:39;13.97;;;9.83;;
14847;SDS011;7516;43.570;1.448;2023-11-19T04:42:06;14.07;;;10.43;;
14847;SDS011;7516;43.570;1.448;2023-11-19T04:44:35;13.57;;;10.60;;
14847;SDS011;7516;43.570;1.448;2023-11-19T04:47:03;14.47;;;9.87;;
14847;SDS011;7516;43.570;1.448;2023-11-19T04:49:30;12.97;;;10.47;;
14847;SDS011;7516;43.570;1.448;2023-11-19T04:51:58;15.77;;;11.17;;
14847;SDS011;7516;43.570;1.448;2023-11-19T04:54:25;14.20;;;9.93;;
14847;SDS011;7516;43.570;1.448;2023-11-19T04:56:53;13.30;;;9.80;;
14847;SDS011;7516;43.570;1.448;2023-11-19T04:59:20;12.03;;;9.70;;
14847;SDS011;7516;43.570;1.448;2023-11-19T05:01:49;15.37;;;9.90;;
14847;SDS011;7516;43.570;1.448;2023-11-19T05:04:17;15.10;;;11.07;;
14847;SDS011;7516;43.570;1.448;2023-11-19T05:06:45;15.60;;;10.70;;
14847;SDS011;7516;43.570;1.448;2023-11-19T05:09:12;13.97;;;10.47;;
14847;SDS011;7516;43.570;1.448;2023-11-19T05:11:39;14.97;;;10.50;;
14847;SDS011;7516;43.570;1.448;2023-11-19T05:14:07;12.00;;;9.17;;
14847;SDS011;7516;43.570;1.448;2023-11-19T05:16:35;14.33;;;10.47;;
14847;SDS011;7516;43.570;1.448;2023-11-19T05:19:06;12.93;;;9.93;;
14847;SDS011;7516;43.570;1.448;2023-11-19T05:21:34;14.07;;;10.40;;
14847;SDS011;7516;43.570;1.448;2023-11-19T05:24:01;14.20;;;10.40;;
14847;SDS011;7516;43.570;1.448;2023-11-19T05:26:30;14.07;;;10.67;;
14847;SDS011;7516;43.570;1.448;2023-11-19T05:28:57;14.20;;;9.67;;
14847;SDS011;7516;43.570;1.448;2023-11-19T05:31:25;12.50;;;9.50;;
14847;SDS011;7516;43.570;1.448;2023-11-19T05:33:52;13.90;;;10.60;;
14847;SDS011;7516;43.570;1.448;2023-11-19T05:36:21;14.47;;;9.50;;
14847;SDS011;7516;43.570;1.448;2023-11-19T05:38:48;13.33;;;9.73;;
14847;SDS011;7516;43.570;1.448;2023-11-19T05:41:16;14.73;;;9.80;;
14847;SDS011;7516;43.570;1.448;2023-11-19T05:43:43;13.57;;;9.37;;
14847;SDS011;7516;43.570;1.448;2023-11-19T05:46:11;16.10;;;10.17;;
14847;SDS011;7516;43.570;1.448;2023-11-19T05:48:39;14.13;;;9.67;;
14847;SDS011;7516;43.570;1.448;2023-11-19T05:51:06;14.57;;;10.50;;
14847;SDS011;7516;43.570;1.448;2023-11-19T05:53:35;13.50;;;9.40;;
14847;SDS011;7516;43.570;1.448;2023-11-19T05:56:03;13.83;;;10.23;;
14847;SDS011;7516;43.570;1.448;2023-11-19T05:58:32;14.40;;;10.37;;
14847;SDS011;7516;43.570;1.448;2023-11-19T06:01:01;13.23;;;9.47;;
14847;SDS011;7516;43.570;1.448;2023-11-19T06:03:28;14.37;;;10.57;;
14847;SDS011;7516;43.570;1.448;2023-11-19T06:05:56;13.70;;;9.37;;
14847;SDS011;7516;43.570;1.448;2023-11-19T06:08:23;12.00;;;9.13;;
14847;SDS011;7516;43.570;1.448;2023-11-19T06:10:53;14.73;;;9.70;;
14847;SDS011;7516;43.570;1.448;2023-11-19T06:13:21;13.37;;;9.97;;
14847;SDS011;7516;43.570;1.448;2023-11-19T06:15:50;15.13;;;9.77;;
14847;SDS011;7516;43.570;1.448;2023-11-19T06:18:18;12.97;;;9.50;;
14847;SDS011;7516;43.570;1.448;2023-11-19T06:20:46;12.57;;;9.80;;
14847;SDS011;7516;43.570;1.448;2023-11-19T06:23:14;11.83;;;8.97;;
14847;SDS011;7516;43.570;1.448;2023-11-19T06:25:42;13.67;;;9.70;;
14847;SDS011;7516;43.570;1.448;2023-11-19T06:28:11;16.57;;;10.37;;
14847;SDS011;7516;43.570;1.448;2023-11-19T06:30:38;13.40;;;9.70;;
14847;SDS011;7516;43.570;1.448;2023-11-19T06:33:06;11.43;;;8.93;;
14847;SDS011;7516;43.570;1.448;2023-11-19T06:35:34;11.63;;;9.40;;
14847;SDS011;7516;43.570;1.448;2023-11-19T06:38:02;13.30;;;8.63;;
14847;SDS011;7516;43.570;1.448;2023-11-19T06:40:30;11.63;;;9.50;;
14847;SDS011;7516;43.570;1.448;2023-11-19T06:42:57;14.43;;;9.70;;
14847;SDS011;7516;43.570;1.448;2023-11-19T06:45:27;13.47;;;9.97;;
14847;SDS011;7516;43.570;1.448;2023-11-19T06:47:54;12.33;;;9.20;;
14847;SDS011;7516;43.570;1.448;2023-11-19T06:50:23;12.87;;;9.07;;
14847;SDS011;7516;43.570;1.448;2023-11-19T06:52:51;10.90;;;8.63;;
14847;SDS011;7516;43.570;1.448;2023-11-19T06:55:19;11.30;;;8.53;;
14847;SDS011;7516;43.570;1.448;2023-11-19T06:57:46;12.50;;;9.03;;
14847;SDS011;7516;43.570;1.448;2023-11-19T07:00:14;12.30;;;9.13;;
14847;SDS011;7516;43.570;1.448;2023-11-19T07:02:43;13.27;;;9.30;;
14847;SDS011;7516;43.570;1.448;2023-11-19T07:05:10;12.17;;;8.50;;
14847;SDS011;7516;43.570;1.448;2023-11-19T07:07:38;10.03;;;7.50;;
14847;SDS011;7516;43.570;1.448;2023-11-19T07:10:06;11.93;;;7.83;;
14847;SDS011;7516;43.570;1.448;2023-11-19T07:12:34;11.67;;;8.07;;
14847;SDS011;7516;43.570;1.448;2023-11-19T07:15:02;9.87;;;6.97;;
14847;SDS011;7516;43.570;1.448;2023-11-19T07:17:30;10.60;;;7.27;;
14847;SDS011;7516;43.570;1.448;2023-11-19T07:19:59;11.03;;;8.10;;
14847;SDS011;7516;43.570;1.448;2023-11-19T07:22:27;10.10;;;7.77;;
14847;SDS011;7516;43.570;1.448;2023-11-19T07:24:55;13.27;;;8.30;;
14847;SDS011;7516;43.570;1.448;2023-11-19T07:27:23;11.47;;;7.73;;
14847;SDS011;7516;43.570;1.448;2023-11-19T07:29:51;11.73;;;7.23;;
14847;SDS011;7516;43.570;1.448;2023-11-19T07:32:18;13.73;;;7.33;;
14847;SDS011;7516;43.570;1.448;2023-11-19T07:34:45;10.50;;;8.20;;
14847;SDS011;7516;43.570;1.448;2023-11-19T07:37:15;11.97;;;8.17;;
14847;SDS011;7516;43.570;1.448;2023-11-19T07:39:43;13.20;;;8.67;;
14847;SDS011;7516;43.570;1.448;2023-11-19T07:42:10;12.00;;;8.67;;
14847;SDS011;7516;43.570;1.448;2023-11-19T07:44:38;10.20;;;8.03;;
14847;SDS011;7516;43.570;1.448;2023-11-19T07:47:06;10.50;;;8.20;;
14847;SDS011;7516;43.570;1.448;2023-11-19T07:49:34;11.73;;;7.67;;
14847;SDS011;7516;43.570;1.448;2023-11-19T07:52:01;9.83;;;8.23;;
14847;SDS011;7516;43.570;1.448;2023-11-19T07:54:30;14.13;;;8.30;;
14847;SDS011;7516;43.570;1.448;2023-11-19T07:56:58;11.07;;;8.00;;
14847;SDS011;7516;43.570;1.448;2023-11-19T07:59:26;10.43;;;7.73;;
14847;SDS011;7516;43.570;1.448;2023-11-19T08:01:53;10.50;;;7.90;;
14847;SDS011;7516;43.570;1.448;2023-11-19T08:04:21;11.23;;;9.00;;
14847;SDS011;7516;43.570;1.448;2023-11-19T08:06:49;11.67;;;8.30;;
14847;SDS011;7516;43.570;1.448;2023-11-19T08:09:17;10.80;;;7.93;;
14847;SDS011;7516;43.570;1.448;2023-11-19T08:11:46;10.10;;;8.53;;
14847;SDS011;7516;43.570;1.448;2023-11-19T08:14:13;13.67;;;9.83;;
14847;SDS011;7516;43.570;1.448;2023-11-19T08:16:41;13.93;;;9.43;;
14847;SDS011;7516;43.570;1.448;2023-11-19T08:19:08;12.13;;;10.53;;
14847;SDS011;7516;43.570;1.448;2023-11-19T08:21:35;14.00;;;10.67;;
14847;SDS011;7516;43.570;1.448;2023-11-19T08:24:03;12.80;;;9.53;;
14847;SDS011;7516;43.570;1.448;2023-11-19T08:26:31;12.40;;;8.93;;
14847;SDS011;7516;43.570;1.448;2023-11-19T08:29:00;12.20;;;8.70;;
14847;SDS011;7516;43.570;1.448;2023-11-19T08:31:27;11.77;;;8.43;;
14847;SDS011;7516;43.570;1.448;2023-11-19T08:33:55;10.90;;;8.93;;
14847;SDS011;7516;43.570;1.448;2023-11-19T08:36:22;11.97;;;8.83;;
14847;SDS011;7516;43.570;1.448;2023-11-19T08:38:50;12.00;;;9.23;;
14847;SDS011;7516;43.570;1.448;2023-11-19T08:41:17;12.60;;;9.30;;
14847;SDS011;7516;43.570;1.448;2023-11-19T08:43:45;13.90;;;9.47;;
14847;SDS011;7516;43.570;1.448;2023-11-19T08:46:14;12.17;;;9.87;;
14847;SDS011;7516;43.570;1.448;2023-11-19T08:48:41;11.27;;;9.23;;
14847;SDS011;7516;43.570;1.448;2023-11-19T08:51:09;13.00;;;10.10;;
14847;SDS011;7516;43.570;1.448;2023-11-19T08:53:36;12.67;;;9.67;;
14847;SDS011;7516;43.570;1.448;2023-11-19T08:56:04;13.60;;;10.17;;
14847;SDS011;7516;43.570;1.448;2023-11-19T08:58:32;14.50;;;11.00;;
14847;SDS011;7516;43.570;1.448;2023-11-19T09:00:59;16.17;;;11.37;;
14847;SDS011;7516;43.570;1.448;2023-11-19T09:03:28;12.53;;;10.13;;
14847;SDS011;7516;43.570;1.448;2023-11-19T09:41:24;9.70;;;7.68;;
14847;SDS011;7516;43.570;1.448;2023-11-19T09:43:53;8.48;;;6.70;;
14847;SDS011;7516;43.570;1.448;2023-11-19T09:46:20;8.67;;;6.43;;
14847;SDS011;7516;43.570;1.448;2023-11-19T09:48:49;9.07;;;6.43;;
14847;SDS011;7516;43.570;1.448;2023-11-19T09:51:19;7.97;;;6.87;;
14847;SDS011;7516;43.570;1.448;2023-11-19T09:53:48;7.17;;;5.57;;
14847;SDS011;7516;43.570;1.448;2023-11-19T09:56:16;8.37;;;6.47;;
14847;SDS011;7516;43.570;1.448;2023-11-19T09:58:44;6.93;;;6.17;;
14847;SDS011;7516;43.570;1.448;2023-11-19T10:01:12;10.20;;;5.90;;
14847;SDS011;7516;43.570;1.448;2023-11-19T10:03:40;8.87;;;6.70;;
14847;SDS011;7516;43.570;1.448;2023-11-19T10:06:09;8.53;;;6.73;;
14847;SDS011;7516;43.570;1.448;2023-11-19T10:08:37;8.17;;;6.53;;
14847;SDS011;7516;43.570;1.448;2023-11-19T10:11:05;11.47;;;6.43;;
14847;SDS011;7516;43.570;1.448;2023-11-19T10:13:33;9.13;;;6.53;;
14847;SDS011;7516;43.570;1.448;2023-11-19T10:16:06;11.50;;;7.73;;
14847;SDS011;7516;43.570;1.448;2023-11-19T10:18:36;11.20;;;8.03;;
14847;SDS011;7516;43.570;1.448;2023-11-19T10:21:05;11.60;;;8.40;;
14847;SDS011;7516;43.570;1.448;2023-11-19T10:23:47;12.23;;;8.07;;
14847;SDS011;7516;43.570;1.448;2023-11-19T10:26:16;14.07;;;9.27;;
14847;SDS011;7516;43.570;1.448;2023-11-19T10:28:45;11.43;;;8.37;;
14847;SDS011;7516;43.570;1.448;2023-11-19T10:31:14;11.93;;;8.90;;
14847;SDS011;7516;43.570;1.448;2023-11-19T10:33:43;12.50;;;7.80;;
14847;SDS011;7516;43.570;1.448;2023-11-19T10:36:11;10.77;;;7.47;;
14847;SDS011;7516;43.570;1.448;2023-11-19T10:38:38;9.50;;;7.10;;
14847;SDS011;7516;43.570;1.448;2023-11-19T10:41:07;10.37;;;7.07;;
14847;SDS011;7516;43.570;1.448;2023-11-19T10:43:42;9.40;;;6.90;;
14847;SDS011;7516;43.570;1.448;2023-11-19T10:46:11;7.83;;;6.43;;
14847;SDS011;7516;43.570;1.448;2023-11-19T10:48:40;9.93;;;7.80;;
14847;SDS011;7516;43.570;1.448;2023-11-19T10:51:08;9.27;;;7.33;;
14847;SDS011;7516;43.570;1.448;2023-11-19T10:53:36;9.83;;;7.03;;
14847;SDS011;7516;43.570;1.448;2023-11-19T10:56:05;7.67;;;6.33;;
14847;SDS011;7516;43.570;1.448;2023-11-19T10:58:36;8.30;;;6.83;;
14847;SDS011;7516;43.570;1.448;2023-11-19T11:01:11;10.07;;;6.60;;
14847;SDS011;7516;43.570;1.448;2023-11-19T11:03:47;8.93;;;6.60;;
14847;SDS011;7516;43.570;1.448;2023-11-19T11:06:18;9.60;;;5.83;;
14847;SDS011;7516;43.570;1.448;2023-11-19T11:08:48;8.03;;;5.93;;
14847;SDS011;7516;43.570;1.448;2023-11-19T11:11:17;9.73;;;6.33;;
14847;SDS011;7516;43.570;1.448;2023-11-19T11:13:46;12.13;;;6.43;;
14847;SDS011;7516;43.570;1.448;2023-11-19T11:16:15;7.37;;;6.03;;
14847;SDS011;7516;43.570;1.448;2023-11-19T11:18:47;9.33;;;6.40;;
14847;SDS011;7516;43.570;1.448;2023-11-19T11:21:17;8.27;;;6.27;;
14847;SDS011;7516;43.570;1.448;2023-11-19T11:23:57;9.70;;;6.17;;
14847;SDS011;7516;43.570;1.448;2023-11-19T11:26:50;10.37;;;6.57;;
14847;SDS011;7516;43.570;1.448;2023-11-19T11:29:35;10.10;;;6.97;;
14847;SDS011;7516;43.570;1.448;2023-11-19T11:32:10;7.30;;;5.63;;
14847;SDS011;7516;43.570;1.448;2023-11-19T11:38:00;8.13;;;5.47;;
14847;SDS011;7516;43.570;1.448;2023-11-19T11:40:30;8.63;;;5.53;;
14847;SDS011;7516;43.570;1.448;2023-11-19T11:42:57;7.10;;;4.87;;
14847;SDS011;7516;43.570;1.448;2023-11-19T11:45:34;7.17;;;5.30;;
14847;SDS011;7516;43.570;1.448;2023-11-19T11:48:12;7.33;;;5.50;;
14847;SDS011;7516;43.570;1.448;2023-11-19T11:50:51;5.77;;;4.77;;
14847;SDS011;7516;43.570;1.448;2023-11-19T11:53:22;6.63;;;4.37;;
14847;SDS011;7516;43.570;1.448;2023-11-19T11:55:54;6.63;;;4.20;;
14847;SDS011;7516;43.570;1.448;2023-11-19T11:58:27;6.37;;;3.97;;
14847;SDS011;7516;43.570;1.448;2023-11-19T12:00:57;6.50;;;4.40;;
14847;SDS011;7516;43.570;1.448;2023-11-19T12:03:27;5.33;;;3.40;;
14847;SDS011;7516;43.570;1.448;2023-11-19T12:05:56;8.67;;;4.83;;
14847;SDS011;7516;43.570;1.448;2023-11-19T12:08:26;8.27;;;4.73;;
14847;SDS011;7516;43.570;1.448;2023-11-19T12:10:55;6.57;;;4.40;;
14847;SDS011;7516;43.570;1.448;2023-11-19T12:13:24;5.40;;;4.37;;
14847;SDS011;7516;43.570;1.448;2023-11-19T12:16:12;5.97;;;3.50;;
14847;SDS011;7516;43.570;1.448;2023-11-19T12:18:40;5.13;;;3.60;;
14847;SDS011;7516;43.570;1.448;2023-11-19T12:21:07;8.10;;;3.60;;
14847;SDS011;7516;43.570;1.448;2023-11-19T12:23:45;5.40;;;3.50;;
14847;SDS011;7516;43.570;1.448;2023-11-19T12:29:00;5.20;;;3.40;;
14847;SDS011;7516;43.570;1.448;2023-11-19T12:31:31;5.10;;;3.03;;
14847;SDS011;7516;43.570;1.448;2023-11-19T12:34:04;3.97;;;3.20;;
14847;SDS011;7516;43.570;1.448;2023-11-19T12:36:37;7.60;;;3.20;;
14847;SDS011;7516;43.570;1.448;2023-11-19T12:39:08;5.57;;;3.13;;
14847;SDS011;7516;43.570;1.448;2023-11-19T12:41:53;6.43;;;2.90;;
14847;SDS011;7516;43.570;1.448;2023-11-19T12:44:22;5.07;;;3.00;;
14847;SDS011;7516;43.570;1.448;2023-11-19T12:46:59;6.57;;;3.80;;
14847;SDS011;7516;43.570;1.448;2023-11-19T12:49:27;4.10;;;2.90;;
14847;SDS011;7516;43.570;1.448;2023-11-19T12:51:54;5.00;;;3.27;;
14847;SDS011;7516;43.570;1.448;2023-11-19T12:54:32;4.47;;;3.40;;
14847;SDS011;7516;43.570;1.448;2023-11-19T12:57:00;7.33;;;3.80;;
14847;SDS011;7516;43.570;1.448;2023-11-19T12:59:29;7.17;;;4.00;;
14847;SDS011;7516;43.570;1.448;2023-11-19T13:01:57;6.17;;;4.20;;
14847;SDS011;7516;43.570;1.448;2023-11-19T13:04:27;8.57;;;4.60;;
14847;SDS011;7516;43.570;1.448;2023-11-19T13:06:56;6.03;;;4.33;;
14847;SDS011;7516;43.570;1.448;2023-11-19T13:09:24;8.03;;;4.50;;
14847;SDS011;7516;43.570;1.448;2023-11-19T13:11:53;5.50;;;3.80;;
14847;SDS011;7516;43.570;1.448;2023-11-19T13:14:21;7.40;;;4.20;;
14847;SDS011;7516;43.570;1.448;2023-11-19T13:16:49;6.27;;;4.00;;
14847;SDS011;7516;43.570;1.448;2023-11-19T13:19:19;6.00;;;4.20;;
14847;SDS011;7516;43.570;1.448;2023-11-19T13:21:48;5.30;;;3.77;;
14847;SDS011;7516;43.570;1.448;2023-11-19T13:24:16;5.40;;;4.20;;
14847;SDS011;7516;43.570;1.448;2023-11-19T13:26:43;9.40;;;4.20;;
14847;SDS011;7516;43.570;1.448;2023-11-19T13:29:12;5.10;;;3.97;;
14847;SDS011;7516;43.570;1.448;2023-11-19T13:31:40;6.10;;;4.37;;
14847;SDS011;7516;43.570;1.448;2023-11-19T13:34:07;7.00;;;4.47;;
14847;SDS011;7516;43.570;1.448;2023-11-19T13:36:35;6.63;;;4.27;;
14847;SDS011;7516;43.570;1.448;2023-11-19T13:39:02;6.53;;;3.97;;
14847;SDS011;7516;43.570;1.448;2023-11-19T13:41:30;5.97;;;3.90;;
14847;SDS011;7516;43.570;1.448;2023-11-19T13:43:57;6.47;;;4.20;;
14847;SDS011;7516;43.570;1.448;2023-11-19T13:46:26;4.77;;;3.70;;
14847;SDS011;7516;43.570;1.448;2023-11-19T13:48:55;5.43;;;3.77;;
14847;SDS011;7516;43.570;1.448;2023-11-19T13:51:22;6.97;;;3.70;;
14847;SDS011;7516;43.570;1.448;2023-11-19T13:53:49;6.73;;;3.80;;
14847;SDS011;7516;43.570;1.448;2023-11-19T13:56:17;5.97;;;3.90;;
14847;SDS011;7516;43.570;1.448;2023-11-19T13:58:44;7.77;;;3.90;;
14847;SDS011;7516;43.570;1.448;2023-11-19T14:01:12;7.20;;;4.20;;
14847;SDS011;7516;43.570;1.448;2023-11-19T14:03:41;6.17;;;3.97;;
14847;SDS011;7516;43.570;1.448;2023-11-19T14:06:08;5.10;;;3.90;;
14847;SDS011;7516;43.570;1.448;2023-11-19T14:08:37;6.27;;;3.87;;
14847;SDS011;7516;43.570;1.448;2023-11-19T14:11:05;5.20;;;3.70;;
14847;SDS011;7516;43.570;1.448;2023-11-19T14:13:32;6.60;;;4.10;;
14847;SDS011;7516;43.570;1.448;2023-11-19T14:16:00;5.50;;;3.77;;
14847;SDS011;7516;43.570;1.448;2023-11-19T14:18:28;5.10;;;3.83;;
14847;SDS011;7516;43.570;1.448;2023-11-19T14:20:57;6.00;;;3.73;;
14847;SDS011;7516;43.570;1.448;2023-11-19T14:23:25;5.90;;;3.87;;
14847;SDS011;7516;43.570;1.448;2023-11-19T14:25:52;7.50;;;3.70;;
14847;SDS011;7516;43.570;1.448;2023-11-19T14:28:20;5.47;;;3.67;;
14847;SDS011;7516;43.570;1.448;2023-11-19T14:30:47;5.27;;;3.60;;
14847;SDS011;7516;43.570;1.448;2023-11-19T14:33:21;5.27;;;4.00;;
14847;SDS011;7516;43.570;1.448;2023-11-19T14:35:49;6.10;;;4.00;;
14847;SDS011;7516;43.570;1.448;2023-11-19T14:38:18;9.57;;;4.10;;
14847;SDS011;7516;43.570;1.448;2023-11-19T14:40:45;4.73;;;3.60;;
14847;SDS011;7516;43.570;1.448;2023-11-19T14:43:13;7.70;;;3.90;;
14847;SDS011;7516;43.570;1.448;2023-11-19T14:45:40;5.83;;;3.67;;
14847;SDS011;7516;43.570;1.448;2023-11-19T14:48:08;7.57;;;4.20;;
14847;SDS011;7516;43.570;1.448;2023-11-19T14:50:36;6.43;;;3.83;;
14847;SDS011;7516;43.570;1.448;2023-11-19T14:53:03;5.73;;;3.70;;
14847;SDS011;7516;43.570;1.448;2023-11-19T14:55:32;5.23;;;3.60;;
14847;SDS011;7516;43.570;1.448;2023-11-19T14:58:00;8.60;;;4.13;;
14847;SDS011;7516;43.570;1.448;2023-11-19T15:00:27;6.50;;;4.00;;
14847;SDS011;7516;43.570;1.448;2023-11-19T15:02:55;6.30;;;3.53;;
14847;SDS011;7516;43.570;1.448;2023-11-19T15:05:22;5.97;;;3.70;;
14847;SDS011;7516;43.570;1.448;2023-11-19T15:07:50;4.47;;;3.30;;
14847;SDS011;7516;43.570;1.448;2023-11-19T15:10:18;6.83;;;3.50;;
14847;SDS011;7516;43.570;1.448;2023-11-19T15:12:47;5.10;;;3.30;;
14847;SDS011;7516;43.570;1.448;2023-11-19T15:15:14;5.30;;;3.80;;
14847;SDS011;7516;43.570;1.448;2023-11-19T15:17:42;5.67;;;3.80;;
14847;SDS011;7516;43.570;1.448;2023-11-19T15:20:10;6.27;;;3.00;;
14847;SDS011;7516;43.570;1.448;2023-11-19T15:22:40;7.03;;;3.87;;
14847;SDS011;7516;43.570;1.448;2023-11-19T15:25:08;4.40;;;3.50;;
14847;SDS011;7516;43.570;1.448;2023-11-19T15:27:35;5.70;;;3.60;;
14847;SDS011;7516;43.570;1.448;2023-11-19T15:30:04;6.67;;;3.93;;
14847;SDS011;7516;43.570;1.448;2023-11-19T15:32:34;6.10;;;4.30;;
14847;SDS011;7516;43.570;1.448;2023-11-19T15:35:02;7.80;;;5.23;;
14847;SDS011;7516;43.570;1.448;2023-11-19T15:37:32;5.73;;;4.67;;
14847;SDS011;7516;43.570;1.448;2023-11-19T15:40:00;8.80;;;4.80;;
14847;SDS011;7516;43.570;1.448;2023-11-19T15:42:29;6.93;;;4.10;;